Chantaco — FMLM — position and weather

sailwx.info

Track history (hours):
 
Tides and Currents Weather Stations Pressure Air Temp Water Temp Dewpoint Dewpoint Depression Visibility Wind Speed Wind Dir Waves Ship Positions

Chantaco

Last reported at 2015-Jul-02 05:23 UTC. Time now 2015-Jul-02 08:08 UTC.
Position N 51°47' E 003°19'.

Length 143 m; draft 7.5 m.

Type: Tanker. MMSI: 228330700.

Date/timePositionNaut miles runAvg speedWind from/ knotsBaromVisibWave heightAir tempDewpointWater temp
2015-Jul-02 05:23N 51°47' E 003°19'0 0.0
2015-Jul-02 04:08N 51°47' E 003°19'0 0.0
2015-Jul-01 10:19N 51°47' E 003°19'0 0.0
2015-Jul-01 09:31N 51°47' E 003°19'3 3.6
2015-Jul-01 08:33N 51°45' E 003°13'1010.4
2015-Jul-01 07:33N 51°46' E 002°57'1312.8
2015-Jul-01 06:34N 51°55' E 002°41'1313.0
2015-Jul-01 05:34N 52°06' E 002°30'1312.8
2015-Jul-01 04:34N 52°18' E 002°22'1212.0
2015-Jul-01 03:34N 52°29' E 002°13'1111.3
2015-Jul-01 02:33N 52°39' E 002°05'1010.3
2015-Jul-01 01:34N 52°47' E 001°56'1010.3
2015-Jul-01 00:33N 52°53' E 001°42'1010.4
2015-Jun-30 23:33N 53°01' E 001°30'1111.4
2015-Jun-30 22:34N 53°10' E 001°20'1211.6
2015-Jun-30 21:33N 53°21' E 001°10'1111.3
2015-Jun-30 20:34N 53°29' E 000°57'1211.9
2015-Jun-30 19:34N 53°34' E 000°39'1110.8
2015-Jun-30 18:33N 53°38' E 000°22'1010.3
2015-Jun-30 17:33N 53°34' E 000°05'10 9.7
2015-Jun-30 16:33N 53°38' W 000°10'0 0.0
2015-Jun-30 15:33N 53°38' W 000°10'0 0.0
2015-Jun-29 22:33N 53°38' W 000°10'2 2.5
2015-Jun-29 21:33N 53°37' W 000°06'1111.3
2015-Jun-29 20:33N 53°33' E 000°12'8 8.1
2015-Jun-29 19:33N 53°34' E 000°25'3 1.3
2015-Jun-29 17:31N 53°36' E 000°28'0 0.2
2015-Jun-29 16:31N 53°36' E 000°28'0 0.0
2015-Jun-29 15:16N 53°36' E 000°28'0 0.0
2015-Jun-29 14:31N 53°36' E 000°28'0 0.0
2015-Jun-29 13:32N 53°36' E 000°28'0 0.0
2015-Jun-29 12:22N 53°36' E 000°28'0 0.0
2015-Jun-29 03:25N 53°36' E 000°28'0 0.0
2015-Jun-29 01:31N 53°36' E 000°28'0 0.0
2015-Jun-29 00:07N 53°36' E 000°28'0 0.0
2015-Jun-28 23:31N 53°36' E 000°28'0 0.1
2015-Jun-28 22:31N 53°36' E 000°28'7 3.5
2015-Jun-28 20:26N 53°29' E 000°29'3113.7
2015-Jun-28 18:08N 53°04' E 001°01'711.9
2015-Jun-28 17:33N 53°01' E 001°11'1111.5
2015-Jun-28 16:33N 52°56' E 001°29'1211.7
2015-Jun-28 15:34N 52°49' E 001°44'1212.0
2015-Jun-28 14:33N 52°40' E 001°56'1414.3
2015-Jun-28 13:33N 52°25' E 001°54'1514.8
2015-Jun-28 12:33N 52°11' E 001°51'1515.3
2015-Jun-28 11:33N 51°55' E 001°48'1514.9
2015-Jun-28 10:33N 51°40' E 001°50'1514.8
2015-Jun-28 09:33N 51°26' E 001°46'1515.2
2015-Jun-28 08:33N 51°11' E 001°38'1312.9
2015-Jun-28 07:33N 50°59' E 001°31'1414.2
2015-Jun-28 06:33N 50°46' E 001°22'1414.0
2015-Jun-28 05:33N 50°35' E 001°08'1413.8
2015-Jun-28 04:33N 50°28' E 000°50'1614.2
2015-Jun-28 03:24N 50°24' E 000°25'1513.7
2015-Jun-28 02:17N 50°20' E 000°02'2312.9
2015-Jun-28 00:29N 50°13' W 000°33'1112.3
2015-Jun-27 23:33N 50°10' W 000°50'1211.7
2015-Jun-27 22:34N 50°07' W 001°08'1211.5
2015-Jun-27 21:33N 50°04' W 001°25'1212.0
2015-Jun-27 20:33N 50°01' W 001°43'1312.8
2015-Jun-27 19:33N 49°57' W 002°02'1413.6
2015-Jun-27 18:33N 49°53' W 002°22'15810.5
2015-Jun-27 03:33N 47°54' W 004°60'1312.6
2015-Jun-27 02:33N 47°47' W 004°44'1412.8
2015-Jun-27 01:27N 47°39' W 004°27'1312.6
2015-Jun-27 00:25N 47°32' W 004°11'1112.4
2015-Jun-26 23:32N 47°26' W 003°57'1212.1
2015-Jun-26 22:33N 47°20' W 003°42'1212.1
2015-Jun-26 21:33N 47°14' W 003°26'1212.5
2015-Jun-26 20:33N 47°08' W 003°10'1312.6
2015-Jun-26 19:33N 47°04' W 002°53'1212.0
2015-Jun-26 18:33N 47°03' W 002°35'1111.6
2015-Jun-26 17:34N 47°09' W 002°21'1312.7
2015-Jun-26 16:33N 47°18' W 002°08'2 1.9
2015-Jun-26 15:33N 47°18' W 002°05'0 0.0
2015-Jun-25 11:20N 47°18' W 002°05'2 3.1
2015-Jun-25 10:33N 47°18' W 002°09'1211.7
2015-Jun-25 09:33N 47°09' W 002°20'4 3.6
2015-Jun-25 08:28N 47°08' W 002°25'0 0.0
2015-Jun-25 07:31N 47°08' W 002°25'0 0.0
2015-Jun-25 06:31N 47°08' W 002°25'0 0.0
2015-Jun-25 05:31N 47°08' W 002°25'0 0.1
2015-Jun-25 04:34N 47°08' W 002°26'0 0.0
2015-Jun-25 03:33N 47°08' W 002°26'0 0.0
2015-Jun-25 02:33N 47°08' W 002°26'9 8.8
2015-Jun-25 01:32N 47°01' W 002°35'1110.9
2015-Jun-25 00:33N 46°51' W 002°40'1312.7
2015-Jun-24 23:33N 46°38' W 002°40'1313.0
2015-Jun-24 22:33N 46°26' W 002°40'1313.0
2015-Jun-24 21:33N 46°12' W 002°40'1313.1
2015-Jun-24 20:33N 45°59' W 002°37'1313.0
2015-Jun-24 19:33N 45°47' W 002°32'1313.1
2015-Jun-24 18:33N 45°34' W 002°27'1313.1
2015-Jun-24 17:33N 45°22' W 002°22'1813.1
2015-Jun-24 16:13N 45°05' W 002°15'913.2
2015-Jun-24 15:33N 44°57' W 002°12'1413.4
2015-Jun-24 14:32N 44°43' W 002°07'1313.3
2015-Jun-24 13:33N 44°31' W 002°02'1313.1
2015-Jun-24 12:33N 44°18' W 001°57'3913.1
2015-Jun-24 09:33N 43°41' W 001°40'1111.3
2015-Jun-24 08:33N 43°32' W 001°31'71 1.9
2015-Jun-22 19:33N 44°31' W 002°25'1414.1
2015-Jun-22 18:34N 44°43' W 002°35'1414.1
2015-Jun-22 17:33N 44°55' W 002°45'1413.9
2015-Jun-22 16:33N 45°07' W 002°55'1414.0
2015-Jun-22 15:33N 45°19' W 003°05'1414.2
2015-Jun-22 14:33N 45°31' W 003°15'1413.7
2015-Jun-22 13:34N 45°43' W 003°25'1413.6
2015-Jun-22 12:33N 45°55' W 003°35'1413.8
2015-Jun-22 11:32N 46°07' W 003°46'1414.1
2015-Jun-22 10:34N 46°19' W 003°56'1414.3
2015-Jun-22 09:33N 46°32' W 004°05'1413.9
2015-Jun-22 08:33N 46°44' W 004°16'1514.3
2015-Jun-22 07:32N 46°56' W 004°26'1414.4
2015-Jun-22 06:32N 47°09' W 004°37'1513.9
2015-Jun-22 05:26N 47°22' W 004°48'  
Track history (hours):
 
Tides and Currents Weather Stations Pressure Air Temp Water Temp Dewpoint Dewpoint Depression Visibility Wind Speed Wind Dir Waves Ship Positions

Chantaco

Last reported at 2015-Jul-02 05:23 UTC. Time now 2015-Jul-02 08:08 UTC.
Position N 51°47' E 003°19'.

Length 143 m; draft 7.5 m.

Type: Tanker. MMSI: 228330700.

Date/timePositionNaut miles runAvg speedWind from/ knotsBaromVisibWave heightAir tempDewpointWater temp
2015-Jul-02 05:23N 51°47' E 003°19'0 0.0
2015-Jul-02 04:08N 51°47' E 003°19'0 0.0
2015-Jul-01 10:19N 51°47' E 003°19'0 0.0
2015-Jul-01 09:31N 51°47' E 003°19'3 3.6
2015-Jul-01 08:33N 51°45' E 003°13'1010.4
2015-Jul-01 07:33N 51°46' E 002°57'1312.8
2015-Jul-01 06:34N 51°55' E 002°41'1313.0
2015-Jul-01 05:34N 52°06' E 002°30'1312.8
2015-Jul-01 04:34N 52°18' E 002°22'1212.0
2015-Jul-01 03:34N 52°29' E 002°13'1111.3
2015-Jul-01 02:33N 52°39' E 002°05'1010.3
2015-Jul-01 01:34N 52°47' E 001°56'1010.3
2015-Jul-01 00:33N 52°53' E 001°42'1010.4
2015-Jun-30 23:33N 53°01' E 001°30'1111.4
2015-Jun-30 22:34N 53°10' E 001°20'1211.6
2015-Jun-30 21:33N 53°21' E 001°10'1111.3
2015-Jun-30 20:34N 53°29' E 000°57'1211.9
2015-Jun-30 19:34N 53°34' E 000°39'1110.8
2015-Jun-30 18:33N 53°38' E 000°22'1010.3
2015-Jun-30 17:33N 53°34' E 000°05'10 9.7
2015-Jun-30 16:33N 53°38' W 000°10'0 0.0
2015-Jun-30 15:33N 53°38' W 000°10'0 0.0
2015-Jun-29 22:33N 53°38' W 000°10'2 2.5
2015-Jun-29 21:33N 53°37' W 000°06'1111.3
2015-Jun-29 20:33N 53°33' E 000°12'8 8.1
2015-Jun-29 19:33N 53°34' E 000°25'3 1.3
2015-Jun-29 17:31N 53°36' E 000°28'0 0.2
2015-Jun-29 16:31N 53°36' E 000°28'0 0.0
2015-Jun-29 15:16N 53°36' E 000°28'0 0.0
2015-Jun-29 14:31N 53°36' E 000°28'0 0.0
2015-Jun-29 13:32N 53°36' E 000°28'0 0.0
2015-Jun-29 12:22N 53°36' E 000°28'0 0.0
2015-Jun-29 03:25N 53°36' E 000°28'0 0.0
2015-Jun-29 01:31N 53°36' E 000°28'0 0.0
2015-Jun-29 00:07N 53°36' E 000°28'0 0.0
2015-Jun-28 23:31N 53°36' E 000°28'0 0.1
2015-Jun-28 22:31N 53°36' E 000°28'7 3.5
2015-Jun-28 20:26N 53°29' E 000°29'3113.7
2015-Jun-28 18:08N 53°04' E 001°01'711.9
2015-Jun-28 17:33N 53°01' E 001°11'1111.5
2015-Jun-28 16:33N 52°56' E 001°29'1211.7
2015-Jun-28 15:34N 52°49' E 001°44'1212.0
2015-Jun-28 14:33N 52°40' E 001°56'1414.3
2015-Jun-28 13:33N 52°25' E 001°54'1514.8
2015-Jun-28 12:33N 52°11' E 001°51'1515.3
2015-Jun-28 11:33N 51°55' E 001°48'1514.9
2015-Jun-28 10:33N 51°40' E 001°50'1514.8
2015-Jun-28 09:33N 51°26' E 001°46'1515.2
2015-Jun-28 08:33N 51°11' E 001°38'1312.9
2015-Jun-28 07:33N 50°59' E 001°31'1414.2
2015-Jun-28 06:33N 50°46' E 001°22'1414.0
2015-Jun-28 05:33N 50°35' E 001°08'1413.8
2015-Jun-28 04:33N 50°28' E 000°50'1614.2
2015-Jun-28 03:24N 50°24' E 000°25'1513.7
2015-Jun-28 02:17N 50°20' E 000°02'2312.9
2015-Jun-28 00:29N 50°13' W 000°33'1112.3
2015-Jun-27 23:33N 50°10' W 000°50'1211.7
2015-Jun-27 22:34N 50°07' W 001°08'1211.5
2015-Jun-27 21:33N 50°04' W 001°25'1212.0
2015-Jun-27 20:33N 50°01' W 001°43'1312.8
2015-Jun-27 19:33N 49°57' W 002°02'1413.6
2015-Jun-27 18:33N 49°53' W 002°22'15810.5
2015-Jun-27 03:33N 47°54' W 004°60'1312.6
2015-Jun-27 02:33N 47°47' W 004°44'1412.8
2015-Jun-27 01:27N 47°39' W 004°27'1312.6
2015-Jun-27 00:25N 47°32' W 004°11'1112.4
2015-Jun-26 23:32N 47°26' W 003°57'1212.1
2015-Jun-26 22:33N 47°20' W 003°42'1212.1
2015-Jun-26 21:33N 47°14' W 003°26'1212.5
2015-Jun-26 20:33N 47°08' W 003°10'1312.6
2015-Jun-26 19:33N 47°04' W 002°53'1212.0
2015-Jun-26 18:33N 47°03' W 002°35'1111.6
2015-Jun-26 17:34N 47°09' W 002°21'1312.7
2015-Jun-26 16:33N 47°18' W 002°08'2 1.9
2015-Jun-26 15:33N 47°18' W 002°05'0 0.0
2015-Jun-25 11:20N 47°18' W 002°05'2 3.1
2015-Jun-25 10:33N 47°18' W 002°09'1211.7
2015-Jun-25 09:33N 47°09' W 002°20'4 3.6
2015-Jun-25 08:28N 47°08' W 002°25'0 0.0
2015-Jun-25 07:31N 47°08' W 002°25'0 0.0
2015-Jun-25 06:31N 47°08' W 002°25'0 0.0
2015-Jun-25 05:31N 47°08' W 002°25'0 0.1
2015-Jun-25 04:34N 47°08' W 002°26'0 0.0
2015-Jun-25 03:33N 47°08' W 002°26'0 0.0
2015-Jun-25 02:33N 47°08' W 002°26'9 8.8
2015-Jun-25 01:32N 47°01' W 002°35'1110.9
2015-Jun-25 00:33N 46°51' W 002°40'1312.7
2015-Jun-24 23:33N 46°38' W 002°40'1313.0
2015-Jun-24 22:33N 46°26' W 002°40'1313.0
2015-Jun-24 21:33N 46°12' W 002°40'1313.1
2015-Jun-24 20:33N 45°59' W 002°37'1313.0
2015-Jun-24 19:33N 45°47' W 002°32'1313.1
2015-Jun-24 18:33N 45°34' W 002°27'1313.1
2015-Jun-24 17:33N 45°22' W 002°22'1813.1
2015-Jun-24 16:13N 45°05' W 002°15'913.2
2015-Jun-24 15:33N 44°57' W 002°12'1413.4
2015-Jun-24 14:32N 44°43' W 002°07'1313.3
2015-Jun-24 13:33N 44°31' W 002°02'1313.1
2015-Jun-24 12:33N 44°18' W 001°57'3913.1
2015-Jun-24 09:33N 43°41' W 001°40'1111.3
2015-Jun-24 08:33N 43°32' W 001°31'71 1.9
2015-Jun-22 19:33N 44°31' W 002°25'1414.1
2015-Jun-22 18:34N 44°43' W 002°35'1414.1
2015-Jun-22 17:33N 44°55' W 002°45'1413.9
2015-Jun-22 16:33N 45°07' W 002°55'1414.0
2015-Jun-22 15:33N 45°19' W 003°05'1414.2
2015-Jun-22 14:33N 45°31' W 003°15'1413.7
2015-Jun-22 13:34N 45°43' W 003°25'1413.6
2015-Jun-22 12:33N 45°55' W 003°35'1413.8
2015-Jun-22 11:32N 46°07' W 003°46'1414.1
2015-Jun-22 10:34N 46°19' W 003°56'1414.3
2015-Jun-22 09:33N 46°32' W 004°05'1413.9
2015-Jun-22 08:33N 46°44' W 004°16'1514.3
2015-Jun-22 07:32N 46°56' W 004°26'1414.4
2015-Jun-22 06:32N 47°09' W 004°37'1513.9
2015-Jun-22 05:26N 47°22' W 004°48'  

Dump ship's entire track history